Terminal Aerodrome Forecast
Issued by NWS Bismarck, ND

Home | Current Version | Previous Version | Text Only | Print | Product List | Glossary On
Versions: 1 2 3 4 5 6 7 8 9 10 11 12 13 14 15
000
FTUS43 KBIS 262333
TAFBIS
TAF
KBIS 262333Z 2700/2724 31012KT P6SM BKN080
     FM270200 28006KT P6SM SCT070
     FM271600 28010KT P6SM SCT110
     FM271800 28014G24KT P6SM BKN070
     FM272100 31015G25KT P6SM VCSH BKN090=

USA.gov is the U.S. government's official web portal to all federal, state and local government web resources and services.